Bowesmont, North Dakota
Current Conditions -  °F | °C
As of 4:13 AM on Sunday 26 Oct 2014 (Local Time) from KHCO Reporting Station
Clear Clear  
Wind Chill: 23°   Ceiling: Unl
Heat Index: 30°   Visibility: 10mi
Dew Point: 21°   Wind: 8mph
Humidity: 69%   Direction: 140°SE
Pressure: 29.93"   Gusts: NA
Location:  48.6338°N, 97.2651°W
Report Text: KHCO 260913Z AUTO 14007KT 10SM CLR M01/M06 A2993 RMK AO2
Loading
Personal Weather Stations






























Interactive Weather Map
Tropical Storm Tracking
New forecast layout! Learn more

10-Day Weather Forecast

Advertisements
Track Severe Weather on mobile